Gil Vicente — CSKG — position and weather

sailwx.info

Track history (hours):
 
Tides and Currents Weather Stations Pressure Air Temp Water Temp Dewpoint Dewpoint Depression Visibility Wind Speed Wind Dir Waves Ship Positions

Gil Vicente

Last reported at 2017-Jun-30 20:39 UTC. Time now 2017-Aug-17 06:04 UTC.
Position N 38°39' W 009°05'.
Warning: this ship's position is 47 days out of date.

Length 49 m.

Type: Passenger vessel. MMSI: 263701390.

Date/timePositionNaut miles runAvg speedWind from/ knotsBaromVisibWave heightAir tempDewpointWater temp
2017-Jun-30 20:39N 38°39' W 009°05'0 0.9
2017-Jun-30 20:30N 38°39' W 009°05'4 8.3
2017-Jun-30 20:01N 38°42' W 009°08'4 8.4
2017-Jun-30 19:30N 38°39' W 009°05'2 3.3
2017-Jun-30 19:00N 38°40' W 009°07'0 0.9
2017-Jun-30 18:30N 38°40' W 009°07'0 0.6
2017-Jun-30 18:00N 38°40' W 009°07'1 2.1
2017-Jun-30 17:30N 38°39' W 009°06'4 7.3
2017-Jun-30 17:00N 38°42' W 009°08'4 8.3
2017-Jun-30 16:31N 38°39' W 009°05'4 8.3
2017-Jun-30 16:00N 38°42' W 009°08'4 7.7
2017-Jun-30 15:30N 38°39' W 009°05'3 5.7
2017-Jun-30 15:00N 38°41' W 009°08'3 6.2
2017-Jun-30 14:30N 38°39' W 009°05'0 0.0
2017-Jun-30 12:24N 38°39' W 009°05'3 8.2
2017-Jun-30 12:00N 38°41' W 009°08'2 4.8
2017-Jun-30 11:30N 38°39' W 009°06'2 4.8
2017-Jun-30 11:01N 38°41' W 009°08'2 5.0
2017-Jun-30 10:31N 38°39' W 009°06'1 1.7
2017-Jun-30 10:00N 38°39' W 009°05'0 0.0
2017-Jun-30 09:30N 38°39' W 009°05'4 8.0
2017-Jun-30 09:00N 38°42' W 009°08'4 8.3
2017-Jun-30 08:30N 38°39' W 009°05'4 8.3
2017-Jun-30 08:01N 38°42' W 009°08'4 8.2
2017-Jun-30 07:30N 38°39' W 009°05'2 4.5
2017-Jun-30 07:00N 38°40' W 009°07'1 2.0
2017-Jun-30 06:30N 38°40' W 009°06'0 0.6
2017-Jun-30 06:00N 38°40' W 009°06'1 0.1
2017-Jun-29 20:35N 38°39' W 009°05'0 1.0
2017-Jun-29 20:30N 38°39' W 009°05'4 8.4
2017-Jun-29 20:00N 38°42' W 009°08'4 8.3
2017-Jun-29 19:30N 38°39' W 009°05'2 3.8
2017-Jun-29 19:00N 38°40' W 009°07'1 1.2
2017-Jun-29 18:30N 38°40' W 009°07'0 1.0
2017-Jun-29 18:00N 38°40' W 009°07'1 2.6
2017-Jun-29 17:30N 38°39' W 009°06'4 7.4
2017-Jun-29 17:00N 38°42' W 009°08'4 8.3
2017-Jun-29 16:30N 38°39' W 009°05'4 8.3
2017-Jun-29 16:00N 38°42' W 009°08'4 7.9
2017-Jun-29 15:30N 38°39' W 009°05'3 5.6
2017-Jun-29 15:00N 38°41' W 009°07'3 6.0
2017-Jun-29 14:30N 38°39' W 009°05'0 0.0
2017-Jun-29 12:28N 38°39' W 009°05'3 7.1
2017-Jun-29 12:01N 38°41' W 009°08'3 5.2
2017-Jun-29 11:31N 38°39' W 009°06'3 5.4
2017-Jun-29 11:01N 38°41' W 009°08'3 6.0
2017-Jun-29 10:28N 38°39' W 009°05'0 0.5
2017-Jun-29 10:00N 38°39' W 009°05'0 0.1
2017-Jun-29 09:30N 38°39' W 009°05'4 8.2
2017-Jun-29 09:00N 38°42' W 009°08'4 8.1
2017-Jun-29 08:30N 38°39' W 009°05'4 8.3
2017-Jun-29 08:00N 38°42' W 009°08'4 7.9
2017-Jun-29 07:30N 38°39' W 009°05'2 4.0
2017-Jun-29 07:00N 38°40' W 009°07'0 0.9
2017-Jun-29 06:30N 38°40' W 009°07'1 1.8
2017-Jun-29 06:00N 38°40' W 009°06'1 1.8
2017-Jun-29 05:28N 38°39' W 009°05'0 0.0
2017-Jun-28 20:15N 38°39' W 009°05'2 8.1
2017-Jun-28 20:01N 38°40' W 009°07'1 1.4
2017-Jun-28 19:30N 38°41' W 009°07'3 5.3
2017-Jun-28 19:01N 38°39' W 009°05'2 3.6
2017-Jun-28 18:30N 38°40' W 009°07'1 1.3
2017-Jun-28 18:00N 38°40' W 009°06'3 6.5
2017-Jun-28 17:30N 38°42' W 009°08'4 8.3
2017-Jun-28 17:00N 38°39' W 009°05'4 7.0
2017-Jun-28 16:30N 38°42' W 009°08'2 4.0
2017-Jun-28 16:00N 38°40' W 009°07'0 0.5
2017-Jun-28 15:31N 38°40' W 009°07'2 4.2
2017-Jun-28 15:00N 38°39' W 009°05'3 3.3
2017-Jun-28 14:00N 38°41' W 009°08'3 5.5
2017-Jun-28 13:30N 38°39' W 009°06'3 6.3
2017-Jun-28 13:00N 38°42' W 009°08'4 6.8
2017-Jun-28 12:28N 38°39' W 009°05'0 0.2
2017-Jun-28 12:00N 38°39' W 009°05'0 0.0
2017-Jun-28 11:29N 38°39' W 009°05'0 0.0
2017-Jun-28 10:59N 38°39' W 009°05'0 0.0
2017-Jun-28 10:30N 38°39' W 009°05'0 0.1
2017-Jun-28 10:00N 38°39' W 009°05'4 7.3
2017-Jun-28 09:31N 38°42' W 009°08'3 6.7
2017-Jun-28 09:01N 38°39' W 009°05'0 0.7
2017-Jun-28 08:31N 38°39' W 009°05'3 6.8
2017-Jun-28 08:01N 38°42' W 009°08'2 3.4
2017-Jun-28 07:30N 38°40' W 009°07'1 2.7
2017-Jun-28 06:58N 38°39' W 009°05'4 8.1
2017-Jun-28 06:30N 38°42' W 009°08'4 8.4
2017-Jun-28 06:00N 38°39' W 009°05'4 7.5
2017-Jun-28 05:30N 38°42' W 009°08'4 7.2
2017-Jun-28 05:00N 38°39' W 009°05'3 6.6
2017-Jun-28 04:30N 38°42' W 009°08'3 1.0
2017-Jun-28 01:18N 38°39' W 009°05'413.9
2017-Jun-28 01:00N 38°42' W 009°08'4 8.3
2017-Jun-28 00:30N 38°39' W 009°05'4 8.3
2017-Jun-28 00:00N 38°42' W 009°08'4 8.3
2017-Jun-27 23:30N 38°39' W 009°05'4 8.3
2017-Jun-27 23:00N 38°42' W 009°08'4 8.3
2017-Jun-27 22:30N 38°39' W 009°05'3 6.8
2017-Jun-27 22:00N 38°41' W 009°08'3 6.1
2017-Jun-27 21:28N 38°39' W 009°05'3 7.0
2017-Jun-27 21:00N 38°41' W 009°08'3 5.4
2017-Jun-27 20:30N 38°39' W 009°06'1 1.5
2017-Jun-27 20:00N 38°39' W 009°05'0 0.0
2017-Jun-27 19:30N 38°39' W 009°05'4 8.3
2017-Jun-27 19:00N 38°42' W 009°08'4 8.4
2017-Jun-27 18:30N 38°39' W 009°05'4 7.6
2017-Jun-27 18:00N 38°42' W 009°08'2 4.5
2017-Jun-27 17:30N 38°40' W 009°07'1 2.7
2017-Jun-27 16:59N 38°39' W 009°05'4 7.7
2017-Jun-27 16:30N 38°42' W 009°08'4 8.4
2017-Jun-27 16:00N 38°39' W 009°05'4 8.4
2017-Jun-27 15:30N 38°42' W 009°08'4 8.3
2017-Jun-27 15:00N 38°39' W 009°05'3 6.8
2017-Jun-27 14:30N 38°41' W 009°08'0 0.2
2017-Jun-27 13:30N 38°42' W 009°08'3 5.6
2017-Jun-27 13:00N 38°39' W 009°06'3 5.5
2017-Jun-27 12:30N 38°41' W 009°08'3 5.9
2017-Jun-27 12:00N 38°39' W 009°05'3 6.0
2017-Jun-27 11:30N 38°42' W 009°08'3 5.8
2017-Jun-27 11:00N 38°39' W 009°06'3 6.0
2017-Jun-27 10:30N 38°42' W 009°08'3 6.1
2017-Jun-27 10:00N 38°39' W 009°05'1 1.0
2017-Jun-27 09:30N 38°39' W 009°05'0 0.1
2017-Jun-27 09:00N 38°39' W 009°05'3 6.9
2017-Jun-27 08:30N 38°42' W 009°08'3 7.0
2017-Jun-27 08:00N 38°39' W 009°05'4 8.3
2017-Jun-27 07:30N 38°42' W 009°08'3 5.5
2017-Jun-27 06:59N 38°40' W 009°07'0 0.4
2017-Jun-27 06:30N 38°40' W 009°06'1 2.5
2017-Jun-27 05:59N 38°39' W 009°05'0 0.0
2017-Jun-27 05:30N 38°39' W 009°05'0 0.0
2017-Jun-26 19:54N 38°39' W 009°05'410.6
2017-Jun-26 19:30N 38°42' W 009°08'4 8.1
2017-Jun-26 19:00N 38°39' W 009°05'4 8.4
2017-Jun-26 18:30N 38°42' W 009°08'4 8.3
2017-Jun-26 18:00N 38°39' W 009°05'4 7.7
2017-Jun-26 17:30N 38°42' W 009°08'2 4.5
2017-Jun-26 17:00N 38°40' W 009°07'1 2.3
2017-Jun-26 16:30N 38°39' W 009°06'4 7.3
2017-Jun-26 16:00N 38°42' W 009°08'4 8.4
2017-Jun-26 15:30N 38°39' W 009°05'3 6.7
2017-Jun-26 15:00N 38°41' W 009°08'3 5.6
2017-Jun-26 14:30N 38°39' W 009°06'1 0.2
2017-Jun-26 10:18N 38°39' W 009°05'311.4
2017-Jun-26 10:01N 38°41' W 009°08'3 5.2
2017-Jun-26 09:30N 38°39' W 009°06'1 1.4
2017-Jun-26 09:00N 38°39' W 009°05'4 8.4
2017-Jun-26 08:30N 38°42' W 009°08'3 5.3
2017-Jun-26 08:00N 38°40' W 009°07'0 0.1
2017-Jun-26 07:30N 38°40' W 009°07'2 4.0
2017-Jun-26 07:00N 38°42' W 009°08'4 7.2
2017-Jun-26 06:31N 38°39' W 009°05'4 8.2
2017-Jun-26 06:00N 38°42' W 009°08'4 8.4
2017-Jun-26 05:31N 38°39' W 009°05'3 6.4
2017-Jun-26 05:01N 38°41' W 009°08'3 6.3
2017-Jun-26 04:30N 38°39' W 009°05'  
2017-Jun-23 19:53N 38°39' W 009°05'411.1
2017-Jun-23 19:30N 38°42' W 009°08'4 8.3
2017-Jun-23 19:00N 38°39' W 009°05'4 8.3
2017-Jun-23 18:30N 38°42' W 009°08'4 8.3
2017-Jun-23 18:00N 38°39' W 009°05'2 4.9
2017-Jun-23 17:30N 38°40' W 009°07'0 0.1
2017-Jun-23 17:00N 38°40' W 009°07'2 3.5
2017-Jun-23 16:30N 38°39' W 009°06'4 7.3
2017-Jun-23 16:00N 38°42' W 009°08'4 8.3
2017-Jun-23 15:30N 38°39' W 009°05'4 7.2
2017-Jun-23 15:00N 38°42' W 009°08'4 3.6
2017-Jun-23 14:00N 38°39' W 009°05'0 0.0
2017-Jun-23 13:30N 38°39' W 009°05'0 0.0
2017-Jun-23 13:00N 38°39' W 009°05'0 0.0
2017-Jun-23 12:30N 38°39' W 009°05'0 0.0
2017-Jun-23 12:00N 38°39' W 009°05'0 0.0
2017-Jun-23 11:30N 38°39' W 009°05'0 0.0
2017-Jun-23 11:00N 38°39' W 009°05'0 0.0
2017-Jun-23 10:30N 38°39' W 009°05'3 6.9
2017-Jun-23 10:00N 38°42' W 009°08'3 5.8
2017-Jun-23 09:30N 38°39' W 009°06'1 1.3
2017-Jun-23 09:00N 38°39' W 009°05'3 7.0
2017-Jun-23 08:30N 38°42' W 009°08'1 2.4
2017-Jun-23 08:00N 38°40' W 009°08'2 4.1
2017-Jun-23 07:30N 38°39' W 009°06'4 7.3
2017-Jun-23 07:00N 38°42' W 009°08'4 8.3
2017-Jun-23 06:30N 38°39' W 009°05'4 8.3
2017-Jun-23 06:00N 38°42' W 009°08'4 8.3
2017-Jun-23 05:30N 38°39' W 009°05'4 7.7
2017-Jun-23 05:00N 38°42' W 009°08'4 7.7
2017-Jun-23 04:30N 38°39' W 009°05'0 0.0
2017-Jun-22 22:56N 38°39' W 009°05'4 9.7
2017-Jun-22 22:30N 38°42' W 009°08'4 8.3
2017-Jun-22 22:00N 38°39' W 009°05'4 7.2
2017-Jun-22 21:30N 38°42' W 009°08'4 7.1
2017-Jun-22 21:00N 38°39' W 009°05'4 7.1
2017-Jun-22 20:30N 38°42' W 009°08'3 7.0
2017-Jun-22 20:00N 38°39' W 009°05'0 0.0
2017-Jun-22 19:30N 38°39' W 009°05'4 8.2
2017-Jun-22 19:00N 38°42' W 009°08'4 8.3
2017-Jun-22 18:30N 38°39' W 009°05'4 8.3
2017-Jun-22 18:00N 38°42' W 009°08'4 8.4
2017-Jun-22 17:30N 38°39' W 009°05'4 8.0
2017-Jun-22 17:00N 38°42' W 009°08'2 4.3
2017-Jun-22 16:30N 38°40' W 009°07'1 1.2
2017-Jun-22 16:00N 38°41' W 009°08'3 4.8
2017-Jun-22 15:28N 38°39' W 009°05'0 0.0
2017-Jun-22 09:29N 38°39' W 009°05'3 7.1
2017-Jun-22 09:00N 38°42' W 009°08'3 5.9
2017-Jun-22 08:30N 38°39' W 009°06'3 6.4
2017-Jun-22 08:00N 38°42' W 009°08'4 7.5
2017-Jun-22 07:30N 38°39' W 009°05'4 8.4
2017-Jun-22 07:00N 38°42' W 009°08'4 8.3
2017-Jun-22 06:30N 38°39' W 009°05'3 7.0
2017-Jun-22 06:00N 38°42' W 009°08'4 7.0
2017-Jun-22 05:30N 38°39' W 009°05'0 0.0
2017-Jun-21 19:46N 38°39' W 009°05'415.7
2017-Jun-21 19:31N 38°42' W 009°08'4 8.1
2017-Jun-21 19:00N 38°39' W 009°05'4 8.7
2017-Jun-21 18:31N 38°42' W 009°08'4 8.3
2017-Jun-21 18:01N 38°39' W 009°05'4 7.7
2017-Jun-21 17:31N 38°42' W 009°08'2 3.1
2017-Jun-21 17:00N 38°40' W 009°08'2 4.0
2017-Jun-21 16:29N 38°39' W 009°05'4 7.8
2017-Jun-21 16:01N 38°42' W 009°08'4 8.3
2017-Jun-21 15:31N 38°39' W 009°05'4 7.0
2017-Jun-21 15:01N 38°42' W 009°08'3 6.5
2017-Jun-21 14:29N 38°39' W 009°05'0 0.0
2017-Jun-21 10:21N 38°39' W 009°05'3 9.9
2017-Jun-21 10:00N 38°42' W 009°08'3 6.5
2017-Jun-21 09:30N 38°39' W 009°05'0 0.4
2017-Jun-21 09:01N 38°39' W 009°05'4 8.3
2017-Jun-21 08:30N 38°42' W 009°08'3 5.0
2017-Jun-21 08:00N 38°40' W 009°07'0 0.7
2017-Jun-21 07:30N 38°40' W 009°07'3 5.5
2017-Jun-21 07:00N 38°42' W 009°08'4 8.3
2017-Jun-21 06:31N 38°39' W 009°05'4 8.3
2017-Jun-21 06:01N 38°42' W 009°08'4 8.3
2017-Jun-21 05:30N 38°39' W 009°05'3 7.0
2017-Jun-21 05:00N 38°42' W 009°08'4 6.9
2017-Jun-21 04:29N 38°39' W 009°05'0 0.0
2017-Jun-20 22:49N 38°39' W 009°05'413.3
2017-Jun-20 22:31N 38°42' W 009°08'4 8.3
2017-Jun-20 22:01N 38°39' W 009°05'3 6.8
2017-Jun-20 21:31N 38°42' W 009°08'3 6.6
2017-Jun-20 20:59N 38°39' W 009°05'  
Track history (hours):
 
Tides and Currents Weather Stations Pressure Air Temp Water Temp Dewpoint Dewpoint Depression Visibility Wind Speed Wind Dir Waves Ship Positions

Gil Vicente

Last reported at 2017-Jun-30 20:39 UTC. Time now 2017-Aug-17 06:04 UTC.
Position N 38°39' W 009°05'.
Warning: this ship's position is 47 days out of date.

Length 49 m.

Type: Passenger vessel. MMSI: 263701390.

Date/timePositionNaut miles runAvg speedWind from/ knotsBaromVisibWave heightAir tempDewpointWater temp
2017-Jun-30 20:39N 38°39' W 009°05'0 0.9
2017-Jun-30 20:30N 38°39' W 009°05'4 8.3
2017-Jun-30 20:01N 38°42' W 009°08'4 8.4
2017-Jun-30 19:30N 38°39' W 009°05'2 3.3
2017-Jun-30 19:00N 38°40' W 009°07'0 0.9
2017-Jun-30 18:30N 38°40' W 009°07'0 0.6
2017-Jun-30 18:00N 38°40' W 009°07'1 2.1
2017-Jun-30 17:30N 38°39' W 009°06'4 7.3
2017-Jun-30 17:00N 38°42' W 009°08'4 8.3
2017-Jun-30 16:31N 38°39' W 009°05'4 8.3
2017-Jun-30 16:00N 38°42' W 009°08'4 7.7
2017-Jun-30 15:30N 38°39' W 009°05'3 5.7
2017-Jun-30 15:00N 38°41' W 009°08'3 6.2
2017-Jun-30 14:30N 38°39' W 009°05'0 0.0
2017-Jun-30 12:24N 38°39' W 009°05'3 8.2
2017-Jun-30 12:00N 38°41' W 009°08'2 4.8
2017-Jun-30 11:30N 38°39' W 009°06'2 4.8
2017-Jun-30 11:01N 38°41' W 009°08'2 5.0
2017-Jun-30 10:31N 38°39' W 009°06'1 1.7
2017-Jun-30 10:00N 38°39' W 009°05'0 0.0
2017-Jun-30 09:30N 38°39' W 009°05'4 8.0
2017-Jun-30 09:00N 38°42' W 009°08'4 8.3
2017-Jun-30 08:30N 38°39' W 009°05'4 8.3
2017-Jun-30 08:01N 38°42' W 009°08'4 8.2
2017-Jun-30 07:30N 38°39' W 009°05'2 4.5
2017-Jun-30 07:00N 38°40' W 009°07'1 2.0
2017-Jun-30 06:30N 38°40' W 009°06'0 0.6
2017-Jun-30 06:00N 38°40' W 009°06'1 0.1
2017-Jun-29 20:35N 38°39' W 009°05'0 1.0
2017-Jun-29 20:30N 38°39' W 009°05'4 8.4
2017-Jun-29 20:00N 38°42' W 009°08'4 8.3
2017-Jun-29 19:30N 38°39' W 009°05'2 3.8
2017-Jun-29 19:00N 38°40' W 009°07'1 1.2
2017-Jun-29 18:30N 38°40' W 009°07'0 1.0
2017-Jun-29 18:00N 38°40' W 009°07'1 2.6
2017-Jun-29 17:30N 38°39' W 009°06'4 7.4
2017-Jun-29 17:00N 38°42' W 009°08'4 8.3
2017-Jun-29 16:30N 38°39' W 009°05'4 8.3
2017-Jun-29 16:00N 38°42' W 009°08'4 7.9
2017-Jun-29 15:30N 38°39' W 009°05'3 5.6
2017-Jun-29 15:00N 38°41' W 009°07'3 6.0
2017-Jun-29 14:30N 38°39' W 009°05'0 0.0
2017-Jun-29 12:28N 38°39' W 009°05'3 7.1
2017-Jun-29 12:01N 38°41' W 009°08'3 5.2
2017-Jun-29 11:31N 38°39' W 009°06'3 5.4
2017-Jun-29 11:01N 38°41' W 009°08'3 6.0
2017-Jun-29 10:28N 38°39' W 009°05'0 0.5
2017-Jun-29 10:00N 38°39' W 009°05'0 0.1
2017-Jun-29 09:30N 38°39' W 009°05'4 8.2
2017-Jun-29 09:00N 38°42' W 009°08'4 8.1
2017-Jun-29 08:30N 38°39' W 009°05'4 8.3
2017-Jun-29 08:00N 38°42' W 009°08'4 7.9
2017-Jun-29 07:30N 38°39' W 009°05'2 4.0
2017-Jun-29 07:00N 38°40' W 009°07'0 0.9
2017-Jun-29 06:30N 38°40' W 009°07'1 1.8
2017-Jun-29 06:00N 38°40' W 009°06'1 1.8
2017-Jun-29 05:28N 38°39' W 009°05'0 0.0
2017-Jun-28 20:15N 38°39' W 009°05'2 8.1
2017-Jun-28 20:01N 38°40' W 009°07'1 1.4
2017-Jun-28 19:30N 38°41' W 009°07'3 5.3
2017-Jun-28 19:01N 38°39' W 009°05'2 3.6
2017-Jun-28 18:30N 38°40' W 009°07'1 1.3
2017-Jun-28 18:00N 38°40' W 009°06'3 6.5
2017-Jun-28 17:30N 38°42' W 009°08'4 8.3
2017-Jun-28 17:00N 38°39' W 009°05'4 7.0
2017-Jun-28 16:30N 38°42' W 009°08'2 4.0
2017-Jun-28 16:00N 38°40' W 009°07'0 0.5
2017-Jun-28 15:31N 38°40' W 009°07'2 4.2
2017-Jun-28 15:00N 38°39' W 009°05'3 3.3
2017-Jun-28 14:00N 38°41' W 009°08'3 5.5
2017-Jun-28 13:30N 38°39' W 009°06'3 6.3
2017-Jun-28 13:00N 38°42' W 009°08'4 6.8
2017-Jun-28 12:28N 38°39' W 009°05'0 0.2
2017-Jun-28 12:00N 38°39' W 009°05'0 0.0
2017-Jun-28 11:29N 38°39' W 009°05'0 0.0
2017-Jun-28 10:59N 38°39' W 009°05'0 0.0
2017-Jun-28 10:30N 38°39' W 009°05'0 0.1
2017-Jun-28 10:00N 38°39' W 009°05'4 7.3
2017-Jun-28 09:31N 38°42' W 009°08'3 6.7
2017-Jun-28 09:01N 38°39' W 009°05'0 0.7
2017-Jun-28 08:31N 38°39' W 009°05'3 6.8
2017-Jun-28 08:01N 38°42' W 009°08'2 3.4
2017-Jun-28 07:30N 38°40' W 009°07'1 2.7
2017-Jun-28 06:58N 38°39' W 009°05'4 8.1
2017-Jun-28 06:30N 38°42' W 009°08'4 8.4
2017-Jun-28 06:00N 38°39' W 009°05'4 7.5
2017-Jun-28 05:30N 38°42' W 009°08'4 7.2
2017-Jun-28 05:00N 38°39' W 009°05'3 6.6
2017-Jun-28 04:30N 38°42' W 009°08'3 1.0
2017-Jun-28 01:18N 38°39' W 009°05'413.9
2017-Jun-28 01:00N 38°42' W 009°08'4 8.3
2017-Jun-28 00:30N 38°39' W 009°05'4 8.3
2017-Jun-28 00:00N 38°42' W 009°08'4 8.3
2017-Jun-27 23:30N 38°39' W 009°05'4 8.3
2017-Jun-27 23:00N 38°42' W 009°08'4 8.3
2017-Jun-27 22:30N 38°39' W 009°05'3 6.8
2017-Jun-27 22:00N 38°41' W 009°08'3 6.1
2017-Jun-27 21:28N 38°39' W 009°05'3 7.0
2017-Jun-27 21:00N 38°41' W 009°08'3 5.4
2017-Jun-27 20:30N 38°39' W 009°06'1 1.5
2017-Jun-27 20:00N 38°39' W 009°05'0 0.0
2017-Jun-27 19:30N 38°39' W 009°05'4 8.3
2017-Jun-27 19:00N 38°42' W 009°08'4 8.4
2017-Jun-27 18:30N 38°39' W 009°05'4 7.6
2017-Jun-27 18:00N 38°42' W 009°08'2 4.5
2017-Jun-27 17:30N 38°40' W 009°07'1 2.7
2017-Jun-27 16:59N 38°39' W 009°05'4 7.7
2017-Jun-27 16:30N 38°42' W 009°08'4 8.4
2017-Jun-27 16:00N 38°39' W 009°05'4 8.4
2017-Jun-27 15:30N 38°42' W 009°08'4 8.3
2017-Jun-27 15:00N 38°39' W 009°05'3 6.8
2017-Jun-27 14:30N 38°41' W 009°08'0 0.2
2017-Jun-27 13:30N 38°42' W 009°08'3 5.6
2017-Jun-27 13:00N 38°39' W 009°06'3 5.5
2017-Jun-27 12:30N 38°41' W 009°08'3 5.9
2017-Jun-27 12:00N 38°39' W 009°05'3 6.0
2017-Jun-27 11:30N 38°42' W 009°08'3 5.8
2017-Jun-27 11:00N 38°39' W 009°06'3 6.0
2017-Jun-27 10:30N 38°42' W 009°08'3 6.1
2017-Jun-27 10:00N 38°39' W 009°05'1 1.0
2017-Jun-27 09:30N 38°39' W 009°05'0 0.1
2017-Jun-27 09:00N 38°39' W 009°05'3 6.9
2017-Jun-27 08:30N 38°42' W 009°08'3 7.0
2017-Jun-27 08:00N 38°39' W 009°05'4 8.3
2017-Jun-27 07:30N 38°42' W 009°08'3 5.5
2017-Jun-27 06:59N 38°40' W 009°07'0 0.4
2017-Jun-27 06:30N 38°40' W 009°06'1 2.5
2017-Jun-27 05:59N 38°39' W 009°05'0 0.0
2017-Jun-27 05:30N 38°39' W 009°05'0 0.0
2017-Jun-26 19:54N 38°39' W 009°05'410.6
2017-Jun-26 19:30N 38°42' W 009°08'4 8.1
2017-Jun-26 19:00N 38°39' W 009°05'4 8.4
2017-Jun-26 18:30N 38°42' W 009°08'4 8.3
2017-Jun-26 18:00N 38°39' W 009°05'4 7.7
2017-Jun-26 17:30N 38°42' W 009°08'2 4.5
2017-Jun-26 17:00N 38°40' W 009°07'1 2.3
2017-Jun-26 16:30N 38°39' W 009°06'4 7.3
2017-Jun-26 16:00N 38°42' W 009°08'4 8.4
2017-Jun-26 15:30N 38°39' W 009°05'3 6.7
2017-Jun-26 15:00N 38°41' W 009°08'3 5.6
2017-Jun-26 14:30N 38°39' W 009°06'1 0.2
2017-Jun-26 10:18N 38°39' W 009°05'311.4
2017-Jun-26 10:01N 38°41' W 009°08'3 5.2
2017-Jun-26 09:30N 38°39' W 009°06'1 1.4
2017-Jun-26 09:00N 38°39' W 009°05'4 8.4
2017-Jun-26 08:30N 38°42' W 009°08'3 5.3
2017-Jun-26 08:00N 38°40' W 009°07'0 0.1
2017-Jun-26 07:30N 38°40' W 009°07'2 4.0
2017-Jun-26 07:00N 38°42' W 009°08'4 7.2
2017-Jun-26 06:31N 38°39' W 009°05'4 8.2
2017-Jun-26 06:00N 38°42' W 009°08'4 8.4
2017-Jun-26 05:31N 38°39' W 009°05'3 6.4
2017-Jun-26 05:01N 38°41' W 009°08'3 6.3
2017-Jun-26 04:30N 38°39' W 009°05'  
2017-Jun-23 19:53N 38°39' W 009°05'411.1
2017-Jun-23 19:30N 38°42' W 009°08'4 8.3
2017-Jun-23 19:00N 38°39' W 009°05'4 8.3
2017-Jun-23 18:30N 38°42' W 009°08'4 8.3
2017-Jun-23 18:00N 38°39' W 009°05'2 4.9
2017-Jun-23 17:30N 38°40' W 009°07'0 0.1
2017-Jun-23 17:00N 38°40' W 009°07'2 3.5
2017-Jun-23 16:30N 38°39' W 009°06'4 7.3
2017-Jun-23 16:00N 38°42' W 009°08'4 8.3
2017-Jun-23 15:30N 38°39' W 009°05'4 7.2
2017-Jun-23 15:00N 38°42' W 009°08'4 3.6
2017-Jun-23 14:00N 38°39' W 009°05'0 0.0
2017-Jun-23 13:30N 38°39' W 009°05'0 0.0
2017-Jun-23 13:00N 38°39' W 009°05'0 0.0
2017-Jun-23 12:30N 38°39' W 009°05'0 0.0
2017-Jun-23 12:00N 38°39' W 009°05'0 0.0
2017-Jun-23 11:30N 38°39' W 009°05'0 0.0
2017-Jun-23 11:00N 38°39' W 009°05'0 0.0
2017-Jun-23 10:30N 38°39' W 009°05'3 6.9
2017-Jun-23 10:00N 38°42' W 009°08'3 5.8
2017-Jun-23 09:30N 38°39' W 009°06'1 1.3
2017-Jun-23 09:00N 38°39' W 009°05'3 7.0
2017-Jun-23 08:30N 38°42' W 009°08'1 2.4
2017-Jun-23 08:00N 38°40' W 009°08'2 4.1
2017-Jun-23 07:30N 38°39' W 009°06'4 7.3
2017-Jun-23 07:00N 38°42' W 009°08'4 8.3
2017-Jun-23 06:30N 38°39' W 009°05'4 8.3
2017-Jun-23 06:00N 38°42' W 009°08'4 8.3
2017-Jun-23 05:30N 38°39' W 009°05'4 7.7
2017-Jun-23 05:00N 38°42' W 009°08'4 7.7
2017-Jun-23 04:30N 38°39' W 009°05'0 0.0
2017-Jun-22 22:56N 38°39' W 009°05'4 9.7
2017-Jun-22 22:30N 38°42' W 009°08'4 8.3
2017-Jun-22 22:00N 38°39' W 009°05'4 7.2
2017-Jun-22 21:30N 38°42' W 009°08'4 7.1
2017-Jun-22 21:00N 38°39' W 009°05'4 7.1
2017-Jun-22 20:30N 38°42' W 009°08'3 7.0
2017-Jun-22 20:00N 38°39' W 009°05'0 0.0
2017-Jun-22 19:30N 38°39' W 009°05'4 8.2
2017-Jun-22 19:00N 38°42' W 009°08'4 8.3
2017-Jun-22 18:30N 38°39' W 009°05'4 8.3
2017-Jun-22 18:00N 38°42' W 009°08'4 8.4
2017-Jun-22 17:30N 38°39' W 009°05'4 8.0
2017-Jun-22 17:00N 38°42' W 009°08'2 4.3
2017-Jun-22 16:30N 38°40' W 009°07'1 1.2
2017-Jun-22 16:00N 38°41' W 009°08'3 4.8
2017-Jun-22 15:28N 38°39' W 009°05'0 0.0
2017-Jun-22 09:29N 38°39' W 009°05'3 7.1
2017-Jun-22 09:00N 38°42' W 009°08'3 5.9
2017-Jun-22 08:30N 38°39' W 009°06'3 6.4
2017-Jun-22 08:00N 38°42' W 009°08'4 7.5
2017-Jun-22 07:30N 38°39' W 009°05'4 8.4
2017-Jun-22 07:00N 38°42' W 009°08'4 8.3
2017-Jun-22 06:30N 38°39' W 009°05'3 7.0
2017-Jun-22 06:00N 38°42' W 009°08'4 7.0
2017-Jun-22 05:30N 38°39' W 009°05'0 0.0
2017-Jun-21 19:46N 38°39' W 009°05'415.7
2017-Jun-21 19:31N 38°42' W 009°08'4 8.1
2017-Jun-21 19:00N 38°39' W 009°05'4 8.7
2017-Jun-21 18:31N 38°42' W 009°08'4 8.3
2017-Jun-21 18:01N 38°39' W 009°05'4 7.7
2017-Jun-21 17:31N 38°42' W 009°08'2 3.1
2017-Jun-21 17:00N 38°40' W 009°08'2 4.0
2017-Jun-21 16:29N 38°39' W 009°05'4 7.8
2017-Jun-21 16:01N 38°42' W 009°08'4 8.3
2017-Jun-21 15:31N 38°39' W 009°05'4 7.0
2017-Jun-21 15:01N 38°42' W 009°08'3 6.5
2017-Jun-21 14:29N 38°39' W 009°05'0 0.0
2017-Jun-21 10:21N 38°39' W 009°05'3 9.9
2017-Jun-21 10:00N 38°42' W 009°08'3 6.5
2017-Jun-21 09:30N 38°39' W 009°05'0 0.4
2017-Jun-21 09:01N 38°39' W 009°05'4 8.3
2017-Jun-21 08:30N 38°42' W 009°08'3 5.0
2017-Jun-21 08:00N 38°40' W 009°07'0 0.7
2017-Jun-21 07:30N 38°40' W 009°07'3 5.5
2017-Jun-21 07:00N 38°42' W 009°08'4 8.3
2017-Jun-21 06:31N 38°39' W 009°05'4 8.3
2017-Jun-21 06:01N 38°42' W 009°08'4 8.3
2017-Jun-21 05:30N 38°39' W 009°05'3 7.0
2017-Jun-21 05:00N 38°42' W 009°08'4 6.9
2017-Jun-21 04:29N 38°39' W 009°05'0 0.0
2017-Jun-20 22:49N 38°39' W 009°05'413.3
2017-Jun-20 22:31N 38°42' W 009°08'4 8.3
2017-Jun-20 22:01N 38°39' W 009°05'3 6.8
2017-Jun-20 21:31N 38°42' W 009°08'3 6.6
2017-Jun-20 20:59N 38°39' W 009°05'  

Dump ship's entire track history